Latest Weather Observations for Horn Island

IDQ60801

Issued at 10:02 am EST Thursday 5 March 2015 (issued every 30 minutes, with the page automatically refreshed every 10 minutes)

About weather observations | Map of weather stations | Latest weather observations for QLD | Other Formats
Station Details ID: 027058 Name: HORN ISLAND Lat: -10.58 Lon: 142.29 Height: 4.0 m
Data from the previous 72 hours. | See also: Recent months at Horn Island
Date/Time
EST
Temp
°C
App
Temp
°C
Dew
Point
Rel
Hum
%
Delta-T
°C
Wind Press
QNH
hPa
Press
MSL
hPa
Rain
since 9 am
mm
Dir
 
Spd
km/h
Gust
km/h
Spd
kts
Gust
kts
05/10:00am 28.3 32.4 23.9 77 3.0 NW 9 13 5 7 1009.6 - 0.0
05/09:30am 28.3 31.5 23.0 73 3.6 N 11 13 6 7 1009.6 - 0.0
05/09:00am 28.4 32.1 23.3 74 3.5 W 9 15 5 8 1009.7 1009.7 0.0
05/08:30am 27.7 33.0 25.3 87 1.7 SSW 7 11 4 6 1009.7 - 0.0
05/08:00am 27.0 32.4 25.4 91 1.1 SSW 7 9 4 5 1009.3 - 0.0
05/07:30am 25.8 32.2 24.9 95 0.6 CALM 0 0 0 0 1008.7 - 0.0
05/07:00am 25.4 30.5 24.7 96 0.5 SSW 6 9 3 5 1008.5 - 0.0
05/06:30am 25.3 30.2 24.6 96 0.5 SSW 7 9 4 5 1008.1 - 0.0
05/06:00am 25.2 31.3 24.5 96 0.5 CALM 0 0 0 0 1007.7 1007.7 0.0
05/05:30am 25.1 30.3 24.2 95 0.6 S 4 7 2 4 1007.3 - 0.0
05/05:00am 25.2 29.9 24.3 95 0.6 SSW 7 9 4 5 1007.0 - 0.0
05/04:30am 25.3 30.1 24.1 93 0.8 ESE 6 7 3 4 1006.9 - 0.0
05/04:00am 25.8 32.0 24.6 93 0.8 CALM 0 7 0 4 1006.9 - 0.0
05/03:30am 25.9 31.7 24.5 92 1.0 SSW 2 6 1 3 1007.4 - 0.0
05/03:00am 25.9 31.0 24.7 93 0.8 SSW 6 7 3 4 1007.9 1007.9 0.0
05/02:30am 25.7 30.7 24.5 93 0.8 SSW 6 7 3 4 1008.1 - 0.0
05/02:00am 25.7 30.7 24.5 93 0.8 SSW 6 7 3 4 1008.3 - 0.0
05/01:30am 25.7 30.8 24.7 94 0.7 S 6 7 3 4 1008.7 - 0.0
05/01:00am 25.7 31.8 24.5 93 0.8 CALM 0 0 0 0 1009.0 - 0.0
05/12:30am 25.9 32.0 24.5 92 1.0 CALM 0 0 0 0 1009.2 - 0.0
05/12:00am 25.8 31.9 24.4 92 1.0 CALM 0 0 0 0 1009.7 1009.7 0.0
 
Date/Time
EST
Temp
°C
App
Temp
°C
Dew
Point
Rel
Hum
%
Delta-T
°C
Wind Press
QNH
hPa
Press
MSL
hPa
Rain
since 9 am
mm
Dir
 
Spd
km/h
Gust
km/h
Spd
kts
Gust
kts
04/11:30pm 25.8 31.9 24.4 92 1.0 CALM 0 0 0 0 1009.7 - 0.0
04/11:00pm 25.9 31.9 24.3 91 1.1 CALM 0 0 0 0 1009.7 - 0.0
04/10:30pm 26.1 32.2 24.5 91 1.1 CALM 0 0 0 0 1009.6 - 0.0
04/10:00pm 26.4 32.6 24.6 90 1.2 CALM 0 0 0 0 1009.4 - 0.0
04/09:30pm 26.5 32.6 24.5 89 1.4 CALM 0 0 0 0 1009.1 - 0.0
04/09:00pm 26.7 32.8 24.5 88 1.5 CALM 0 0 0 0 1008.8 1008.8 0.0
04/08:30pm 27.0 33.0 24.3 85 1.9 CALM 0 0 0 0 1008.5 - 0.0
04/08:00pm 27.1 33.1 24.2 84 2.0 CALM 0 0 0 0 1007.9 - 0.0
04/07:30pm 27.6 32.2 23.8 80 2.6 N 6 7 3 4 1007.3 - 0.0
04/07:00pm 27.8 32.2 23.4 77 3.0 NNE 6 11 3 6 1006.7 - 0.0
04/06:30pm 28.4 32.0 23.1 73 3.6 NNW 9 13 5 7 1006.2 - 0.0
04/06:00pm 29.1 33.1 23.8 73 3.7 NNW 9 13 5 7 1005.9 1005.9 0.0
04/05:30pm 29.0 32.7 23.9 74 3.5 N 11 15 6 8 1005.7 - 0.0
04/05:00pm 28.8 32.1 23.2 71 3.8 N 11 15 6 8 1005.6 - 0.0
04/04:30pm 29.2 31.8 22.7 68 4.4 NNE 13 20 7 11 1005.9 - 0.0
04/04:00pm 29.6 32.2 23.3 69 4.3 NNE 15 20 8 11 1005.9 - 0.0
04/03:30pm 29.6 31.4 23.3 69 4.3 NNE 19 22 10 12 1006.2 - 0.0
04/03:00pm 29.7 32.3 23.9 71 4.0 NNE 17 24 9 13 1006.6 1006.6 0.0
04/02:30pm 29.9 32.7 24.3 72 3.9 N 17 20 9 11 1006.9 - 0.0
04/02:00pm 29.5 31.6 24.1 72 3.7 NE 20 24 11 13 1007.3 - 0.0
04/01:30pm 29.7 32.6 23.9 71 4.0 N 15 20 8 11 1007.7 - 0.0
04/01:00pm 29.9 33.5 24.3 72 3.9 ENE 13 19 7 10 1008.0 - 0.0
04/12:30pm 29.8 32.3 22.5 65 5.0 ENE 13 19 7 10 1008.2 - 0.0
04/12:00pm 29.6 32.9 23.8 71 4.0 ENE 13 19 7 10 1008.6 1008.6 0.0
04/11:30am 29.9 32.6 22.9 66 4.8 E 13 20 7 11 1009.0 - 0.0
04/11:00am 29.7 32.8 22.9 67 4.6 E 11 17 6 9 1009.1 - 0.0
04/10:30am 29.2 32.2 23.4 71 4.0 E 13 19 7 10 1009.2 - 0.0
04/10:00am 28.6 31.9 23.9 75 3.2 E 13 17 7 9 1009.5 - 0.0
04/09:30am 29.7 33.8 23.9 71 4.0 E 9 17 5 9 1009.4 - 0.0
04/09:00am 28.3 32.4 23.2 74 3.5 N 7 11 4 6 1009.3 1009.3 2.2
04/08:30am 27.6 32.2 24.8 85 2.0 N 9 15 5 8 1009.2 - 2.2
04/08:00am 26.8 32.2 25.2 91 1.1 S 6 7 3 4 1008.8 - 2.2
04/07:30am 25.2 31.3 24.5 96 0.5 CALM 0 0 0 0 1008.6 - 2.2
04/07:00am 24.3 28.8 23.6 96 0.5 SSE 6 6 3 3 1008.4 - 2.2
04/06:30am 24.1 29.2 23.4 96 0.5 SSW 2 6 1 3 1008.1 - 2.2
04/06:00am 23.9 28.4 22.9 94 0.7 SSW 4 7 2 4 1007.9 1007.9 2.0
04/05:30am 24.0 28.9 23.0 94 0.7 SSW 2 6 1 3 1007.4 - 2.0
04/05:00am 24.2 29.6 23.2 94 0.7 CALM 0 0 0 0 1007.1 - 2.0
04/04:30am 24.5 29.1 23.1 92 0.9 SE 4 6 2 3 1006.9 - 2.0
04/04:00am 24.7 27.7 22.6 88 1.4 SE 11 15 6 8 1006.8 - 2.0
04/03:30am 25.0 28.3 23.2 90 1.2 ESE 11 15 6 8 1007.1 - 2.0
04/03:25am 25.0 28.0 23.4 91 1.1 ESE 13 19 7 10 1007.2 - 2.0
04/03:09am 25.1 26.9 23.5 91 1.1 SE 20 32 11 17 1007.4 - 1.6
04/03:00am 25.2 30.5 24.3 95 0.6 S 4 22 2 12 1007.3 1007.3 0.0
04/02:30am 25.1 31.1 24.2 95 0.6 CALM 0 0 0 0 1007.3 - 0.0
04/02:00am 25.0 30.8 24.0 94 0.7 CALM 0 0 0 0 1007.5 - 0.0
04/01:30am 25.1 31.0 24.1 94 0.7 CALM 0 0 0 0 1008.0 - 0.0
04/01:00am 25.3 31.1 23.9 92 1.0 CALM 0 6 0 3 1008.3 - 0.0
04/12:30am 25.9 32.2 24.7 93 0.8 CALM 0 0 0 0 1008.7 - 0.0
04/12:00am 26.0 32.2 24.6 92 1.0 CALM 0 2 0 1 1009.0 1009.0 0.0
 
Date/Time
EST
Temp
°C
App
Temp
°C
Dew
Point
Rel
Hum
%
Delta-T
°C
Wind Press
QNH
hPa
Press
MSL
hPa
Rain
since 9 am
mm
Dir
 
Spd
km/h
Gust
km/h
Spd
kts
Gust
kts
03/11:30pm 25.9 30.6 24.3 91 1.1 ESE 7 9 4 5 1009.0 - 0.0
03/11:00pm 25.9 32.0 24.5 92 1.0 CALM 0 0 0 0 1008.9 - 0.0
03/10:30pm 26.3 32.7 24.9 92 1.0 CALM 0 0 0 0 1008.8 - 0.0
03/10:00pm 26.7 33.1 24.9 90 1.3 CALM 0 0 0 0 1008.7 - 0.0
03/09:30pm 26.7 31.6 24.7 89 1.4 S 7 7 4 4 1008.6 - 0.0
03/09:00pm 27.0 31.8 24.5 86 1.7 WSW 7 9 4 5 1008.3 1008.3 0.0
03/08:30pm 27.8 32.9 24.6 83 2.2 SSE 6 9 3 5 1008.1 - 0.0
03/08:00pm 28.2 33.0 24.4 80 2.6 SE 7 11 4 6 1007.8 - 0.0
03/07:30pm 28.3 33.4 24.7 81 2.5 E 6 9 3 5 1007.2 - 0.0
03/07:00pm 28.6 33.9 25.0 81 2.5 E 6 7 3 4 1006.8 - 0.0
03/06:30pm 28.8 33.6 24.4 77 3.1 E 7 11 4 6 1006.5 - 0.0
03/06:00pm 29.2 33.4 24.1 74 3.5 E 9 13 5 7 1006.4 1006.4 0.0
03/05:30pm 29.5 33.1 23.7 71 4.0 ENE 11 15 6 8 1006.1 - 0.0
03/05:00pm 30.3 33.2 23.2 65 4.9 E 13 17 7 9 1005.9 - 0.0
03/04:30pm 30.7 33.8 23.6 66 4.9 ENE 13 19 7 10 1005.6 - 0.0
03/04:00pm 30.5 33.6 22.9 64 5.2 ENE 11 15 6 8 1005.6 - 0.0
03/03:30pm 31.1 35.4 24.2 66 4.8 N 9 13 5 7 1005.7 - 0.0
03/03:00pm 29.8 34.1 24.2 72 3.9 N 9 13 5 7 1005.8 1005.8 0.0
03/02:30pm 29.9 34.0 24.5 73 3.8 N 11 15 6 8 1006.1 - 0.0
03/02:00pm 29.9 34.2 24.3 72 3.9 N 9 13 5 7 1006.6 - 0.0
03/01:30pm 29.8 33.7 24.9 75 3.4 N 13 19 7 10 1007.1 - 0.0
03/01:00pm 29.2 32.9 24.5 76 3.3 N 13 17 7 9 1007.5 - 0.0
03/12:30pm 29.3 33.2 24.8 77 3.1 NNW 13 17 7 9 1008.2 - 0.0
03/12:00pm 29.8 33.7 25.5 78 3.0 NNW 15 19 8 10 1008.4 1008.4 0.0
03/11:30am 29.3 33.2 24.8 77 3.1 NNW 13 19 7 10 1009.0 - 0.0
03/11:00am 29.4 33.1 25.8 81 2.6 NNW 17 22 9 12 1009.6 - 0.0
03/10:30am 28.3 31.6 25.1 83 2.2 N 17 24 9 13 1009.7 - 0.0
03/10:00am 28.5 32.8 24.3 78 2.9 N 9 13 5 7 1009.8 - 0.0
03/09:30am 28.5 33.9 25.1 82 2.4 N 6 9 3 5 1009.8 - 0.0
03/09:00am 28.6 33.7 25.0 81 2.5 N 7 9 4 5 1009.6 1009.6 0.4
03/08:30am 28.1 34.5 24.9 83 2.2 CALM 0 0 0 0 1009.4 - 0.4
03/08:00am 27.5 34.7 26.1 92 1.0 CALM 0 0 0 0 1009.2 - 0.4
03/07:30am 26.0 32.9 25.7 98 0.2 CALM 0 0 0 0 1008.7 - 0.4
03/07:00am 25.3 30.6 25.0 98 0.2 ESE 6 7 3 4 1008.3 - 0.4
03/06:30am 25.2 31.5 24.7 97 0.3 CALM 0 0 0 0 1007.8 - 0.4
03/06:00am 25.0 29.8 24.5 97 0.3 SE 7 9 4 5 1007.4 1007.4 0.4
03/05:30am 25.2 31.3 24.5 96 0.5 CALM 0 0 0 0 1006.9 - 0.4
03/05:00am 25.3 31.5 24.6 96 0.5 CALM 0 0 0 0 1006.7 - 0.4
03/04:30am 25.4 31.7 24.7 96 0.5 CALM 0 0 0 0 1006.5 - 0.4
03/04:00am 25.7 32.2 25.0 96 0.5 CALM 0 0 0 0 1006.5 - 0.4
03/03:30am 25.8 32.3 25.1 96 0.5 CALM 0 0 0 0 1006.3 - 0.4
03/03:00am 25.8 32.3 25.1 96 0.5 CALM 0 0 0 0 1006.5 1006.5 0.4
03/02:30am 25.8 32.2 24.9 95 0.6 CALM 0 0 0 0 1006.8 - 0.4
03/02:00am 25.7 32.0 24.7 94 0.7 CALM 0 0 0 0 1007.1 - 0.4
03/01:30am 25.6 31.8 24.6 94 0.7 CALM 0 0 0 0 1007.4 - 0.4
03/01:00am 25.7 31.8 24.5 93 0.8 CALM 0 0 0 0 1007.3 - 0.4
03/12:30am 26.1 31.0 24.7 92 1.0 SSE 7 9 4 5 1007.4 - 0.4
03/12:00am 26.4 32.6 24.6 90 1.3 CALM 0 6 0 3 1007.8 1007.8 0.4
 
Date/Time
EST
Temp
°C
App
Temp
°C
Dew
Point
Rel
Hum
%
Delta-T
°C
Wind Press
QNH
hPa
Press
MSL
hPa
Rain
since 9 am
mm
Dir
 
Spd
km/h
Gust
km/h
Spd
kts
Gust
kts
02/11:30pm 26.7 31.8 24.7 89 1.4 W 6 7 3 4 1008.1 - 0.4
02/11:00pm 26.7 31.3 24.7 89 1.4 SW 9 19 5 10 1008.2 - 0.2
02/10:30pm 27.0 33.7 25.4 91 1.1 CALM 0 0 0 0 1008.1 - 0.0
02/10:00pm 26.9 33.5 25.3 91 1.1 CALM 0 0 0 0 1007.7 - 0.0
02/09:30pm 26.9 33.0 25.1 90 1.3 S 2 6 1 3 1007.4 - 0.0
02/09:00pm 27.0 32.8 25.2 90 1.3 S 4 7 2 4 1007.2 1007.2 0.0
02/08:30pm 26.9 33.4 25.1 90 1.3 CALM 0 0 0 0 1007.0 - 0.0
02/08:00pm 26.9 32.5 24.9 89 1.4 S 4 6 2 3 1006.5 - 0.0
02/07:30pm 26.6 32.7 24.4 88 1.5 CALM 0 9 0 5 1006.2 - 0.0
02/07:00pm 26.7 31.6 24.4 87 1.6 WSW 6 7 3 4 1005.7 - 0.0
02/06:30pm 26.8 31.4 24.1 85 1.9 W 7 11 4 6 1005.6 - 0.0
02/06:00pm 26.3 29.1 23.6 85 1.9 W 15 20 8 11 1005.6 1005.6 0.0
02/05:30pm 28.6 32.2 24.4 78 2.9 WNW 13 20 7 11 1005.4 - 0.0
02/05:00pm 29.2 32.4 24.3 75 3.4 NW 15 22 8 12 1005.2 - 0.0
02/04:30pm 29.0 31.8 25.0 79 2.8 NW 19 24 10 13 1005.0 - 0.0
02/04:00pm 28.7 31.2 24.5 78 2.9 NNW 19 24 10 13 1005.1 - 0.0
02/03:30pm 28.9 32.8 24.9 79 2.8 NNW 13 20 7 11 1005.2 - 0.0
02/03:00pm 28.5 32.0 24.9 81 2.5 NNW 15 20 8 11 1005.4 1005.4 0.0
02/02:30pm 27.5 30.8 25.1 87 1.7 NNW 17 24 9 13 1005.9 - 0.0
02/02:24pm 27.0 30.1 24.8 88 1.5 NNW 17 22 9 12 1006.0 - 0.0
02/02:07pm 26.9 30.2 25.1 90 1.3 NNW 17 24 9 13 1006.4 - 0.0
02/02:00pm 26.9 31.2 24.9 89 1.4 NW 11 20 6 11 1006.4 - 0.0
02/01:57pm 26.8 30.9 24.6 88 1.5 WNW 11 19 6 10 1006.4 - 0.0
02/01:41pm 26.5 28.9 23.6 84 2.0 NW 17 28 9 15 1006.6 - 0.0
02/01:30pm 27.4 29.2 23.2 78 2.9 NW 19 26 10 14 1006.8 - 0.0
02/01:00pm 29.3 31.8 24.8 77 3.1 NNW 20 28 11 15 1007.0 - 0.0
02/12:30pm 29.5 31.9 24.6 75 3.4 NNW 20 32 11 17 1007.5 - 0.0
02/12:00pm 29.6 32.9 25.1 77 3.2 NNW 17 26 9 14 1008.1 1008.1 0.0
02/11:30am 29.3 31.5 24.2 74 3.5 NNW 20 28 11 15 1008.3 - 0.0
02/11:00am 28.0 30.9 24.4 81 2.5 NNW 17 28 9 15 1008.6 - 0.0
02/10:30am 29.2 32.5 24.5 76 3.3 NNW 15 20 8 11 1008.8 - 0.0

Other Formats:

Comma delimited format used in spreadsheet applications
http://www.bom.gov.au/fwo/IDQ60801/IDQ60801.94174.axf

JavaScript Object Notation format (JSON) in row-major order
http://www.bom.gov.au/fwo/IDQ60801/IDQ60801.94174.json